This is the latest recevied weather packets stored in our database for station/object IZ2XCK-13. If no packets are shown the sender has not sent any weather packets the latest 10 day(s).
| Time | Temp. | Humidity | Pressure | Rain* | Wind** | Luminosity | Snow |
|---|---|---|---|---|---|---|---|
| 1778121897 | 10° C | 86% | 1013.1 hPa | - | - | - | - |
| 1778120696 | 10° C | 83% | 1013.2 hPa | - | - | - | - |
| 1778119496 | 10.56° C | 87% | 1013.2 hPa | - | - | - | - |
| 1778118296 | 10.56° C | 82% | 1013 hPa | - | - | - | - |
| 1778117096 | 10.56° C | 84% | 1012.9 hPa | - | - | - | - |
| 1778115895 | 10° C | 88% | 1013.1 hPa | - | - | - | - |
| 1778114695 | 10.56° C | 91% | 1013.5 hPa | - | - | - | - |
| 1778113495 | 10.56° C | 87% | 1012.9 hPa | - | - | - | - |
| 1778112294 | 10.56° C | 90% | 1012.9 hPa | - | - | - | - |
| 1778111094 | 10° C | 95% | 1013.1 hPa | - | - | - | - |
| 1778109894 | 10.56° C | 85% | 1013.1 hPa | - | - | - | - |
| 1778108693 | 11.11° C | 83% | 1013.2 hPa | - | - | - | - |
| 1778107493 | 10.56° C | 90% | 1013.5 hPa | - | - | - | - |
| 1778106293 | 11.11° C | 84% | 1013.5 hPa | - | - | - | - |
| 1778105092 | 10.56° C | 86% | 1013.1 hPa | - | - | - | - |
| 1778103892 | 11.11° C | 80% | 1013 hPa | - | - | - | - |
| 1778102692 | 10.56° C | 81% | 1013.2 hPa | - | - | - | - |
| 1778101491 | 11.11° C | 80% | 1013.2 hPa | - | - | - | - |
| 1778100291 | 10.56° C | 84% | 1013.1 hPa | - | - | - | - |
| 1778099091 | 10.56° C | 83% | 1013.2 hPa | - | - | - | - |
| 1778097890 | 10.56° C | 85% | 1013 hPa | - | - | - | - |
| 1778096690 | 11.67° C | 82% | 1012.8 hPa | - | - | - | - |
| 1778095555 | 10.56° C | 90% | 1013.3 hPa | - | - | - | - |
| 1778093153 | 11.67° C | 94% | 1013 hPa | - | - | - | - |
| 1778091953 | 12.78° C | 88% | 1011.9 hPa | - | - | - | - |
* Rain since midnight (hover to see other rain measurements)
** Current wind speed in m/s (hover to see current wind gust speed)